sensor_id;sensor_type;location;lat;lon;timestamp;pressure;altitude;pressure_sealevel;temperature;humidity
60874;BME280;46715;40.642;-7.920;2023-11-19T00:00:02;74618.50;;;-146.45;100.00
60874;BME280;46715;40.642;-7.920;2023-11-19T00:02:08;74622.47;;;-146.45;100.00
60874;BME280;46715;40.642;-7.920;2023-11-19T00:04:08;74628.44;;;-146.45;100.00
60874;BME280;46715;40.642;-7.920;2023-11-19T00:06:09;74624.47;;;-146.45;100.00
60874;BME280;46715;40.642;-7.920;2023-11-19T00:08:11;74620.47;;;-146.45;100.00
60874;BME280;46715;40.642;-7.920;2023-11-19T00:10:14;74620.47;;;-146.45;100.00
60874;BME280;46715;40.642;-7.920;2023-11-19T00:12:18;74622.47;;;-146.45;100.00
60874;BME280;46715;40.642;-7.920;2023-11-19T00:14:19;74624.47;;;-146.45;100.00
60874;BME280;46715;40.642;-7.920;2023-11-19T00:16:20;74622.47;;;-146.45;100.00
60874;BME280;46715;40.642;-7.920;2023-11-19T00:18:21;74622.47;;;-146.45;100.00
60874;BME280;46715;40.642;-7.920;2023-11-19T00:20:22;74622.47;;;-146.45;100.00
60874;BME280;46715;40.642;-7.920;2023-11-19T00:22:23;74620.47;;;-146.45;100.00
60874;BME280;46715;40.642;-7.920;2023-11-19T00:24:26;74626.44;;;-146.45;100.00
60874;BME280;46715;40.642;-7.920;2023-11-19T00:26:27;74626.44;;;-146.45;100.00
60874;BME280;46715;40.642;-7.920;2023-11-19T00:28:28;74626.44;;;-146.45;100.00
60874;BME280;46715;40.642;-7.920;2023-11-19T00:30:29;74628.44;;;-146.45;100.00
60874;BME280;46715;40.642;-7.920;2023-11-19T00:32:32;74636.38;;;-146.45;100.00
60874;BME280;46715;40.642;-7.920;2023-11-19T00:34:34;74632.41;;;-146.45;100.00
60874;BME280;46715;40.642;-7.920;2023-11-19T00:36:36;74636.38;;;-146.45;100.00
60874;BME280;46715;40.642;-7.920;2023-11-19T00:38:37;74634.41;;;-146.45;100.00
60874;BME280;46715;40.642;-7.920;2023-11-19T00:40:38;74636.38;;;-146.45;100.00
60874;BME280;46715;40.642;-7.920;2023-11-19T00:42:38;74636.38;;;-146.45;100.00
60874;BME280;46715;40.642;-7.920;2023-11-19T00:44:39;74644.34;;;-146.45;100.00
60874;BME280;46715;40.642;-7.920;2023-11-19T00:46:41;74636.38;;;-146.45;100.00
60874;BME280;46715;40.642;-7.920;2023-11-19T00:48:42;74636.38;;;-146.45;100.00
60874;BME280;46715;40.642;-7.920;2023-11-19T00:50:42;74632.41;;;-146.45;100.00
60874;BME280;46715;40.642;-7.920;2023-11-19T00:52:45;74634.41;;;-146.45;100.00
60874;BME280;46715;40.642;-7.920;2023-11-19T00:54:45;74634.41;;;-146.45;100.00
60874;BME280;46715;40.642;-7.920;2023-11-19T00:56:46;74632.41;;;-146.45;100.00
60874;BME280;46715;40.642;-7.920;2023-11-19T00:58:47;74640.38;;;-146.45;100.00
60874;BME280;46715;40.642;-7.920;2023-11-19T01:00:48;74630.41;;;-146.45;100.00
60874;BME280;46715;40.642;-7.920;2023-11-19T01:02:48;74628.44;;;-146.45;100.00
60874;BME280;46715;40.642;-7.920;2023-11-19T01:04:50;74634.41;;;-146.45;100.00
60874;BME280;46715;40.642;-7.920;2023-11-19T01:06:51;74636.38;;;-146.45;100.00
60874;BME280;46715;40.642;-7.920;2023-11-19T01:08:51;74638.38;;;-146.45;100.00
60874;BME280;46715;40.642;-7.920;2023-11-19T01:10:53;74638.38;;;-146.45;100.00
60874;BME280;46715;40.642;-7.920;2023-11-19T01:12:54;74634.41;;;-146.45;100.00
60874;BME280;46715;40.642;-7.920;2023-11-19T01:14:55;74644.34;;;-146.45;100.00
60874;BME280;46715;40.642;-7.920;2023-11-19T01:16:57;74644.34;;;-146.45;100.00
60874;BME280;46715;40.642;-7.920;2023-11-19T01:18:58;74638.38;;;-146.45;100.00
60874;BME280;46715;40.642;-7.920;2023-11-19T01:20:58;74644.34;;;-146.45;100.00
60874;BME280;46715;40.642;-7.920;2023-11-19T01:22:59;74640.38;;;-146.45;100.00
60874;BME280;46715;40.642;-7.920;2023-11-19T01:24:59;74632.41;;;-146.45;100.00
60874;BME280;46715;40.642;-7.920;2023-11-19T01:27:00;74638.38;;;-146.45;100.00
60874;BME280;46715;40.642;-7.920;2023-11-19T01:29:01;74642.34;;;-146.45;100.00
60874;BME280;46715;40.642;-7.920;2023-11-19T01:31:02;74646.31;;;-146.45;100.00
60874;BME280;46715;40.642;-7.920;2023-11-19T01:33:04;74642.34;;;-146.45;100.00
60874;BME280;46715;40.642;-7.920;2023-11-19T01:35:05;74648.31;;;-146.45;100.00
60874;BME280;46715;40.642;-7.920;2023-11-19T01:37:06;74656.28;;;-146.45;100.00
60874;BME280;46715;40.642;-7.920;2023-11-19T01:39:07;74660.25;;;-146.45;100.00
60874;BME280;46715;40.642;-7.920;2023-11-19T01:41:08;74656.28;;;-146.45;100.00
60874;BME280;46715;40.642;-7.920;2023-11-19T01:43:09;74654.28;;;-146.45;100.00
60874;BME280;46715;40.642;-7.920;2023-11-19T01:45:22;74656.28;;;-146.45;100.00
60874;BME280;46715;40.642;-7.920;2023-11-19T01:47:23;74654.28;;;-146.45;100.00
60874;BME280;46715;40.642;-7.920;2023-11-19T01:49:25;74654.28;;;-146.45;100.00
60874;BME280;46715;40.642;-7.920;2023-11-19T01:51:32;74640.38;;;-146.45;100.00
60874;BME280;46715;40.642;-7.920;2023-11-19T01:53:34;74652.28;;;-146.45;100.00
60874;BME280;46715;40.642;-7.920;2023-11-19T01:55:35;74650.31;;;-146.45;100.00
60874;BME280;46715;40.642;-7.920;2023-11-19T01:57:36;74652.28;;;-146.45;100.00
60874;BME280;46715;40.642;-7.920;2023-11-19T01:59:38;74652.28;;;-146.45;100.00
60874;BME280;46715;40.642;-7.920;2023-11-19T02:01:40;74650.31;;;-146.45;100.00
60874;BME280;46715;40.642;-7.920;2023-11-19T02:03:40;74660.25;;;-146.45;100.00
60874;BME280;46715;40.642;-7.920;2023-11-19T02:05:41;74654.28;;;-146.45;100.00
60874;BME280;46715;40.642;-7.920;2023-11-19T02:07:42;74658.25;;;-146.45;100.00
60874;BME280;46715;40.642;-7.920;2023-11-19T02:09:43;74664.22;;;-146.45;100.00
60874;BME280;46715;40.642;-7.920;2023-11-19T02:11:45;74660.25;;;-146.45;100.00
60874;BME280;46715;40.642;-7.920;2023-11-19T02:13:49;74664.22;;;-146.45;100.00
60874;BME280;46715;40.642;-7.920;2023-11-19T02:15:50;74670.19;;;-146.45;100.00
60874;BME280;46715;40.642;-7.920;2023-11-19T02:17:52;74664.22;;;-146.45;100.00
60874;BME280;46715;40.642;-7.920;2023-11-19T02:19:53;74648.31;;;-146.45;100.00
60874;BME280;46715;40.642;-7.920;2023-11-19T02:21:54;74672.19;;;-146.45;100.00
60874;BME280;46715;40.642;-7.920;2023-11-19T02:23:56;74674.16;;;-146.45;100.00
60874;BME280;46715;40.642;-7.920;2023-11-19T02:26:00;74674.16;;;-146.45;100.00
60874;BME280;46715;40.642;-7.920;2023-11-19T02:28:03;74680.13;;;-146.45;100.00
60874;BME280;46715;40.642;-7.920;2023-11-19T02:30:05;74692.06;;;-146.45;100.00
60874;BME280;46715;40.642;-7.920;2023-11-19T02:32:09;74698.03;;;-146.45;100.00
60874;BME280;46715;40.642;-7.920;2023-11-19T02:34:10;74688.09;;;-146.45;100.00
60874;BME280;46715;40.642;-7.920;2023-11-19T02:36:13;74686.09;;;-146.45;100.00
60874;BME280;46715;40.642;-7.920;2023-11-19T02:38:13;74694.06;;;-146.45;100.00
60874;BME280;46715;40.642;-7.920;2023-11-19T02:40:15;74696.03;;;-146.45;100.00
60874;BME280;46715;40.642;-7.920;2023-11-19T02:42:15;74686.09;;;-146.45;100.00
60874;BME280;46715;40.642;-7.920;2023-11-19T02:44:17;74690.09;;;-146.45;100.00
60874;BME280;46715;40.642;-7.920;2023-11-19T02:46:18;74686.09;;;-146.45;100.00
60874;BME280;46715;40.642;-7.920;2023-11-19T02:48:19;74694.06;;;-146.45;100.00
60874;BME280;46715;40.642;-7.920;2023-11-19T02:50:21;74690.09;;;-146.45;100.00
60874;BME280;46715;40.642;-7.920;2023-11-19T02:52:31;74690.09;;;-146.45;100.00
60874;BME280;46715;40.642;-7.920;2023-11-19T02:54:37;74690.09;;;-146.45;100.00
60874;BME280;46715;40.642;-7.920;2023-11-19T02:56:42;74688.09;;;-146.45;100.00
60874;BME280;46715;40.642;-7.920;2023-11-19T02:58:44;74690.09;;;-146.45;100.00
60874;BME280;46715;40.642;-7.920;2023-11-19T03:00:46;74702.00;;;-146.45;100.00
60874;BME280;46715;40.642;-7.920;2023-11-19T03:02:54;74706.00;;;-146.45;100.00
60874;BME280;46715;40.642;-7.920;2023-11-19T03:05:06;74713.94;;;-146.45;100.00
60874;BME280;46715;40.642;-7.920;2023-11-19T03:07:08;74727.88;;;-146.45;100.00
60874;BME280;46715;40.642;-7.920;2023-11-19T03:09:08;74717.91;;;-146.45;100.00
60874;BME280;46715;40.642;-7.920;2023-11-19T03:11:11;74725.88;;;-146.45;100.00
60874;BME280;46715;40.642;-7.920;2023-11-19T03:13:13;74737.81;;;-146.45;100.00
60874;BME280;46715;40.642;-7.920;2023-11-19T03:15:20;74741.78;;;-146.45;100.00
60874;BME280;46715;40.642;-7.920;2023-11-19T03:17:21;74735.81;;;-146.45;100.00
60874;BME280;46715;40.642;-7.920;2023-11-19T03:19:22;74737.81;;;-146.45;100.00
60874;BME280;46715;40.642;-7.920;2023-11-19T03:21:29;74739.78;;;-146.45;100.00
60874;BME280;46715;40.642;-7.920;2023-11-19T03:23:30;74729.84;;;-146.45;100.00
60874;BME280;46715;40.642;-7.920;2023-11-19T03:25:31;74739.78;;;-146.45;100.00
60874;BME280;46715;40.642;-7.920;2023-11-19T03:27:37;74745.75;;;-146.45;100.00
60874;BME280;46715;40.642;-7.920;2023-11-19T03:29:39;74745.75;;;-146.45;100.00
60874;BME280;46715;40.642;-7.920;2023-11-19T03:31:42;74749.75;;;-146.45;100.00
60874;BME280;46715;40.642;-7.920;2023-11-19T03:33:43;74765.66;;;-146.45;100.00
60874;BME280;46715;40.642;-7.920;2023-11-19T03:35:44;74759.69;;;-146.45;100.00
60874;BME280;46715;40.642;-7.920;2023-11-19T03:37:45;74765.66;;;-146.45;100.00
60874;BME280;46715;40.642;-7.920;2023-11-19T03:39:47;74761.66;;;-146.45;100.00
60874;BME280;46715;40.642;-7.920;2023-11-19T03:41:47;74757.69;;;-146.45;100.00
60874;BME280;46715;40.642;-7.920;2023-11-19T03:43:48;74749.75;;;-146.45;100.00
60874;BME280;46715;40.642;-7.920;2023-11-19T03:45:49;74749.75;;;-146.45;100.00
60874;BME280;46715;40.642;-7.920;2023-11-19T03:47:49;74749.75;;;-146.45;100.00
60874;BME280;46715;40.642;-7.920;2023-11-19T03:49:51;74747.75;;;-146.45;100.00
60874;BME280;46715;40.642;-7.920;2023-11-19T03:51:52;74759.69;;;-146.45;100.00
60874;BME280;46715;40.642;-7.920;2023-11-19T03:53:52;74757.69;;;-146.45;100.00
60874;BME280;46715;40.642;-7.920;2023-11-19T03:55:53;74761.66;;;-146.45;100.00
60874;BME280;46715;40.642;-7.920;2023-11-19T03:57:54;74759.69;;;-146.45;100.00
60874;BME280;46715;40.642;-7.920;2023-11-19T03:59:54;74759.69;;;-146.45;100.00
60874;BME280;46715;40.642;-7.920;2023-11-19T04:01:56;74759.69;;;-146.45;100.00
60874;BME280;46715;40.642;-7.920;2023-11-19T04:03:56;74747.75;;;-146.45;100.00
60874;BME280;46715;40.642;-7.920;2023-11-19T04:05:58;74747.75;;;-146.45;100.00
60874;BME280;46715;40.642;-7.920;2023-11-19T04:07:59;74745.75;;;-146.45;100.00
60874;BME280;46715;40.642;-7.920;2023-11-19T04:10:00;74747.75;;;-146.45;100.00
60874;BME280;46715;40.642;-7.920;2023-11-19T04:12:01;74749.75;;;-146.45;100.00
60874;BME280;46715;40.642;-7.920;2023-11-19T04:14:02;74747.75;;;-146.45;100.00
60874;BME280;46715;40.642;-7.920;2023-11-19T04:16:02;74743.78;;;-146.45;100.00
60874;BME280;46715;40.642;-7.920;2023-11-19T04:18:03;74741.78;;;-146.45;100.00
60874;BME280;46715;40.642;-7.920;2023-11-19T04:20:05;74747.75;;;-146.45;100.00
60874;BME280;46715;40.642;-7.920;2023-11-19T04:22:07;74745.75;;;-146.45;100.00
60874;BME280;46715;40.642;-7.920;2023-11-19T04:24:09;74743.78;;;-146.45;100.00
60874;BME280;46715;40.642;-7.920;2023-11-19T04:26:13;74745.75;;;-146.45;100.00
60874;BME280;46715;40.642;-7.920;2023-11-19T04:28:14;74745.75;;;-146.45;100.00
60874;BME280;46715;40.642;-7.920;2023-11-19T04:30:15;74747.75;;;-146.45;100.00
60874;BME280;46715;40.642;-7.920;2023-11-19T04:32:17;74745.75;;;-146.45;100.00
60874;BME280;46715;40.642;-7.920;2023-11-19T04:34:18;74745.75;;;-146.45;100.00
60874;BME280;46715;40.642;-7.920;2023-11-19T04:36:18;74753.72;;;-146.45;100.00
60874;BME280;46715;40.642;-7.920;2023-11-19T04:38:19;74751.72;;;-146.45;100.00
60874;BME280;46715;40.642;-7.920;2023-11-19T04:40:20;74755.72;;;-146.45;100.00
60874;BME280;46715;40.642;-7.920;2023-11-19T04:42:23;74761.66;;;-146.45;100.00
60874;BME280;46715;40.642;-7.920;2023-11-19T04:44:24;74751.72;;;-146.45;100.00
60874;BME280;46715;40.642;-7.920;2023-11-19T04:46:25;74763.66;;;-146.45;100.00
60874;BME280;46715;40.642;-7.920;2023-11-19T04:48:26;74769.63;;;-146.45;100.00
60874;BME280;46715;40.642;-7.920;2023-11-19T04:50:26;74765.66;;;-146.45;100.00
60874;BME280;46715;40.642;-7.920;2023-11-19T04:52:27;74775.59;;;-146.45;100.00
60874;BME280;46715;40.642;-7.920;2023-11-19T04:54:28;74773.59;;;-146.45;100.00
60874;BME280;46715;40.642;-7.920;2023-11-19T04:56:28;74775.59;;;-146.45;100.00
60874;BME280;46715;40.642;-7.920;2023-11-19T04:58:29;74771.63;;;-146.45;100.00
60874;BME280;46715;40.642;-7.920;2023-11-19T05:00:30;74771.63;;;-146.45;100.00
60874;BME280;46715;40.642;-7.920;2023-11-19T05:02:31;74781.56;;;-146.45;100.00
60874;BME280;46715;40.642;-7.920;2023-11-19T05:04:32;74775.59;;;-146.45;100.00
60874;BME280;46715;40.642;-7.920;2023-11-19T05:06:32;74783.53;;;-146.45;100.00
60874;BME280;46715;40.642;-7.920;2023-11-19T05:08:33;74779.56;;;-146.45;100.00
60874;BME280;46715;40.642;-7.920;2023-11-19T05:10:34;74777.59;;;-146.45;100.00
60874;BME280;46715;40.642;-7.920;2023-11-19T05:12:34;74773.59;;;-146.45;100.00
60874;BME280;46715;40.642;-7.920;2023-11-19T05:14:35;74775.59;;;-146.45;100.00
60874;BME280;46715;40.642;-7.920;2023-11-19T05:16:39;74781.56;;;-146.45;100.00
60874;BME280;46715;40.642;-7.920;2023-11-19T05:18:40;74781.56;;;-146.45;100.00
60874;BME280;46715;40.642;-7.920;2023-11-19T05:20:41;74781.56;;;-146.45;100.00
60874;BME280;46715;40.642;-7.920;2023-11-19T05:22:42;74779.56;;;-146.45;100.00
60874;BME280;46715;40.642;-7.920;2023-11-19T05:24:43;74787.53;;;-146.45;100.00
60874;BME280;46715;40.642;-7.920;2023-11-19T05:26:44;74783.53;;;-146.45;100.00
60874;BME280;46715;40.642;-7.920;2023-11-19T05:28:45;74783.53;;;-146.45;100.00
60874;BME280;46715;40.642;-7.920;2023-11-19T05:30:46;74797.47;;;-146.45;100.00
60874;BME280;46715;40.642;-7.920;2023-11-19T05:32:46;74801.44;;;-146.45;100.00
60874;BME280;46715;40.642;-7.920;2023-11-19T05:34:47;74807.41;;;-146.45;100.00
60874;BME280;46715;40.642;-7.920;2023-11-19T05:36:48;74805.41;;;-146.45;100.00
60874;BME280;46715;40.642;-7.920;2023-11-19T05:38:50;74799.47;;;-146.45;100.00
60874;BME280;46715;40.642;-7.920;2023-11-19T05:40:50;74795.47;;;-146.45;100.00
60874;BME280;46715;40.642;-7.920;2023-11-19T05:42:51;74789.50;;;-146.45;100.00
60874;BME280;46715;40.642;-7.920;2023-11-19T05:44:52;74775.59;;;-146.45;100.00
60874;BME280;46715;40.642;-7.920;2023-11-19T05:46:53;74769.63;;;-146.45;100.00
60874;BME280;46715;40.642;-7.920;2023-11-19T05:48:53;74781.56;;;-146.45;100.00
60874;BME280;46715;40.642;-7.920;2023-11-19T05:50:54;74791.50;;;-146.45;100.00
60874;BME280;46715;40.642;-7.920;2023-11-19T05:52:55;74789.50;;;-146.45;100.00
60874;BME280;46715;40.642;-7.920;2023-11-19T05:54:56;74775.59;;;-146.45;100.00
60874;BME280;46715;40.642;-7.920;2023-11-19T05:56:56;74763.66;;;-146.45;100.00
60874;BME280;46715;40.642;-7.920;2023-11-19T05:58:58;74763.66;;;-146.45;100.00
60874;BME280;46715;40.642;-7.920;2023-11-19T06:01:01;74769.63;;;-146.45;100.00
60874;BME280;46715;40.642;-7.920;2023-11-19T06:03:03;74763.66;;;-146.45;100.00
60874;BME280;46715;40.642;-7.920;2023-11-19T06:05:05;74775.59;;;-146.45;100.00
60874;BME280;46715;40.642;-7.920;2023-11-19T06:07:06;74787.53;;;-146.45;100.00
60874;BME280;46715;40.642;-7.920;2023-11-19T06:09:07;74777.59;;;-146.45;100.00
60874;BME280;46715;40.642;-7.920;2023-11-19T06:11:10;74775.59;;;-146.45;100.00
60874;BME280;46715;40.642;-7.920;2023-11-19T06:13:15;74781.56;;;-146.45;100.00
60874;BME280;46715;40.642;-7.920;2023-11-19T06:15:16;74777.59;;;-146.45;100.00
60874;BME280;46715;40.642;-7.920;2023-11-19T06:17:16;74779.56;;;-146.45;100.00
60874;BME280;46715;40.642;-7.920;2023-11-19T06:19:17;74795.47;;;-146.45;100.00
60874;BME280;46715;40.642;-7.920;2023-11-19T06:21:18;74791.50;;;-146.45;100.00
60874;BME280;46715;40.642;-7.920;2023-11-19T06:23:18;74793.50;;;-146.45;100.00
60874;BME280;46715;40.642;-7.920;2023-11-19T06:25:19;74807.41;;;-146.45;100.00
60874;BME280;46715;40.642;-7.920;2023-11-19T06:27:21;74803.44;;;-146.45;100.00
60874;BME280;46715;40.642;-7.920;2023-11-19T06:29:22;74797.47;;;-146.45;100.00
60874;BME280;46715;40.642;-7.920;2023-11-19T06:31:23;74797.47;;;-146.45;100.00
60874;BME280;46715;40.642;-7.920;2023-11-19T06:33:24;74795.47;;;-146.45;100.00
60874;BME280;46715;40.642;-7.920;2023-11-19T06:35:25;74781.56;;;-146.45;100.00
60874;BME280;46715;40.642;-7.920;2023-11-19T06:37:25;74777.59;;;-146.45;100.00
60874;BME280;46715;40.642;-7.920;2023-11-19T06:39:27;74789.50;;;-146.45;100.00
60874;BME280;46715;40.642;-7.920;2023-11-19T06:41:28;74783.53;;;-146.45;100.00
60874;BME280;46715;40.642;-7.920;2023-11-19T06:43:29;74773.59;;;-146.45;100.00
60874;BME280;46715;40.642;-7.920;2023-11-19T06:45:30;74773.59;;;-146.45;100.00
60874;BME280;46715;40.642;-7.920;2023-11-19T06:47:31;74781.56;;;-146.45;100.00
60874;BME280;46715;40.642;-7.920;2023-11-19T06:49:31;74783.53;;;-146.45;100.00
60874;BME280;46715;40.642;-7.920;2023-11-19T06:51:32;74761.66;;;-146.45;100.00
60874;BME280;46715;40.642;-7.920;2023-11-19T06:53:33;74747.75;;;-146.45;100.00
60874;BME280;46715;40.642;-7.920;2023-11-19T06:55:33;74757.69;;;-146.45;100.00
60874;BME280;46715;40.642;-7.920;2023-11-19T06:57:34;74781.56;;;-146.45;100.00
60874;BME280;46715;40.642;-7.920;2023-11-19T06:59:35;74787.53;;;-146.45;100.00
60874;BME280;46715;40.642;-7.920;2023-11-19T07:01:36;74795.47;;;-146.45;100.00
60874;BME280;46715;40.642;-7.920;2023-11-19T07:03:37;74805.41;;;-146.45;100.00
60874;BME280;46715;40.642;-7.920;2023-11-19T07:05:37;74813.38;;;-146.45;100.00
60874;BME280;46715;40.642;-7.920;2023-11-19T07:07:41;74803.44;;;-146.45;100.00
60874;BME280;46715;40.642;-7.920;2023-11-19T07:09:41;74811.38;;;-146.45;100.00
60874;BME280;46715;40.642;-7.920;2023-11-19T07:11:46;74813.38;;;-146.45;100.00
60874;BME280;46715;40.642;-7.920;2023-11-19T07:13:46;74817.34;;;-146.45;100.00
60874;BME280;46715;40.642;-7.920;2023-11-19T07:15:47;74819.34;;;-146.45;100.00
60874;BME280;46715;40.642;-7.920;2023-11-19T07:17:48;74819.34;;;-146.45;100.00
60874;BME280;46715;40.642;-7.920;2023-11-19T07:19:49;74825.31;;;-146.45;100.00
60874;BME280;46715;40.642;-7.920;2023-11-19T07:21:50;74825.31;;;-146.45;100.00
60874;BME280;46715;40.642;-7.920;2023-11-19T07:23:51;74821.34;;;-146.45;100.00
60874;BME280;46715;40.642;-7.920;2023-11-19T07:25:52;74819.34;;;-146.45;100.00
60874;BME280;46715;40.642;-7.920;2023-11-19T07:27:53;74825.31;;;-146.45;100.00
60874;BME280;46715;40.642;-7.920;2023-11-19T07:29:54;74827.28;;;-146.45;100.00
60874;BME280;46715;40.642;-7.920;2023-11-19T07:31:55;74823.31;;;-146.45;100.00
60874;BME280;46715;40.642;-7.920;2023-11-19T07:33:56;74823.31;;;-146.45;100.00
60874;BME280;46715;40.642;-7.920;2023-11-19T07:35:57;74819.34;;;-146.45;100.00
60874;BME280;46715;40.642;-7.920;2023-11-19T07:37:58;74827.28;;;-146.45;100.00
60874;BME280;46715;40.642;-7.920;2023-11-19T07:39:58;74821.34;;;-146.45;100.00
60874;BME280;46715;40.642;-7.920;2023-11-19T07:41:59;74819.34;;;-146.45;100.00
60874;BME280;46715;40.642;-7.920;2023-11-19T07:44:00;74817.34;;;-146.45;100.00
60874;BME280;46715;40.642;-7.920;2023-11-19T07:46:01;74813.38;;;-146.45;100.00
60874;BME280;46715;40.642;-7.920;2023-11-19T07:48:04;74811.38;;;-146.45;100.00
60874;BME280;46715;40.642;-7.920;2023-11-19T07:50:07;74821.34;;;-146.45;100.00
60874;BME280;46715;40.642;-7.920;2023-11-19T07:52:07;74825.31;;;-146.45;100.00
60874;BME280;46715;40.642;-7.920;2023-11-19T07:54:08;74815.38;;;-146.45;100.00
60874;BME280;46715;40.642;-7.920;2023-11-19T07:56:09;74823.31;;;-146.45;100.00
60874;BME280;46715;40.642;-7.920;2023-11-19T07:58:11;74829.28;;;-146.45;100.00
60874;BME280;46715;40.642;-7.920;2023-11-19T08:00:12;74821.34;;;-146.45;100.00
60874;BME280;46715;40.642;-7.920;2023-11-19T08:02:13;74817.34;;;-146.45;100.00
60874;BME280;46715;40.642;-7.920;2023-11-19T08:04:15;74805.41;;;-146.45;100.00
60874;BME280;46715;40.642;-7.920;2023-11-19T08:06:15;74799.47;;;-146.45;100.00
60874;BME280;46715;40.642;-7.920;2023-11-19T08:08:16;74805.41;;;-146.45;100.00
60874;BME280;46715;40.642;-7.920;2023-11-19T08:10:17;74805.41;;;-146.45;100.00
60874;BME280;46715;40.642;-7.920;2023-11-19T08:12:18;74809.41;;;-146.45;100.00
60874;BME280;46715;40.642;-7.920;2023-11-19T08:14:19;74795.47;;;-146.45;100.00
60874;BME280;46715;40.642;-7.920;2023-11-19T08:16:19;74791.50;;;-146.45;100.00
60874;BME280;46715;40.642;-7.920;2023-11-19T08:18:20;74785.53;;;-146.45;100.00
60874;BME280;46715;40.642;-7.920;2023-11-19T08:20:21;74785.53;;;-146.45;100.00
60874;BME280;46715;40.642;-7.920;2023-11-19T08:22:22;74775.59;;;-146.45;100.00
60874;BME280;46715;40.642;-7.920;2023-11-19T08:24:23;74767.63;;;-146.45;100.00
60874;BME280;46715;40.642;-7.920;2023-11-19T08:26:23;74741.78;;;-146.45;100.00
60874;BME280;46715;40.642;-7.920;2023-11-19T08:28:24;74725.88;;;-146.45;98.91
60874;BME280;46715;40.642;-7.920;2023-11-19T08:30:24;74719.91;;;-146.45;98.45
60874;BME280;46715;40.642;-7.920;2023-11-19T08:32:26;74672.19;;;-146.45;98.16
60874;BME280;46715;40.642;-7.920;2023-11-19T08:34:27;74666.22;;;-146.45;95.78
60874;BME280;46715;40.642;-7.920;2023-11-19T08:36:28;74608.53;;;-146.45;95.95
60874;BME280;46715;40.642;-7.920;2023-11-19T08:38:28;74515.09;;;-146.45;92.00
60874;BME280;46715;40.642;-7.920;2023-11-19T08:40:29;74397.75;;;-146.45;88.55
60874;BME280;46715;40.642;-7.920;2023-11-19T08:42:30;74288.41;;;-146.45;83.14
60874;BME280;46715;40.642;-7.920;2023-11-19T08:44:31;74212.84;;;-146.45;75.40
60874;BME280;46715;40.642;-7.920;2023-11-19T08:46:32;74081.59;;;-146.45;72.76
60874;BME280;46715;40.642;-7.920;2023-11-19T08:48:32;73984.19;;;-146.45;67.41
60874;BME280;46715;40.642;-7.920;2023-11-19T08:50:33;73898.69;;;-146.45;63.58
60874;BME280;46715;40.642;-7.920;2023-11-19T08:52:34;73835.06;;;-146.45;59.80
60874;BME280;46715;40.642;-7.920;2023-11-19T08:54:35;73785.34;;;-146.45;57.40
60874;BME280;46715;40.642;-7.920;2023-11-19T08:56:36;73773.41;;;-146.45;55.69
60874;BME280;46715;40.642;-7.920;2023-11-19T08:58:37;73737.63;;;-146.45;54.61
60874;BME280;46715;40.642;-7.920;2023-11-19T09:00:37;73755.53;;;-146.45;53.95
60874;BME280;46715;40.642;-7.920;2023-11-19T09:02:38;73831.09;;;-146.45;55.43
60874;BME280;46715;40.642;-7.920;2023-11-19T09:04:39;73942.41;;;-146.45;57.73
60874;BME280;46715;40.642;-7.920;2023-11-19T09:06:39;74057.75;;;-146.45;60.93
60874;BME280;46715;40.642;-7.920;2023-11-19T09:08:42;74149.22;;;-146.45;64.93
60874;BME280;46715;40.642;-7.920;2023-11-19T09:10:42;74236.69;;;-146.45;68.97
60874;BME280;46715;40.642;-7.920;2023-11-19T09:12:43;74304.31;;;-146.45;73.28
60874;BME280;46715;40.642;-7.920;2023-11-19T09:14:44;74342.09;;;-146.45;76.56
60874;BME280;46715;40.642;-7.920;2023-11-19T09:16:46;74405.72;;;-146.45;79.19
60874;BME280;46715;40.642;-7.920;2023-11-19T09:18:46;74477.31;;;-146.45;83.83
60874;BME280;46715;40.642;-7.920;2023-11-19T09:20:47;74497.19;;;-146.45;86.58
60874;BME280;46715;40.642;-7.920;2023-11-19T09:22:48;74497.19;;;-146.45;87.21
60874;BME280;46715;40.642;-7.920;2023-11-19T09:24:48;74493.22;;;-146.45;87.60
60874;BME280;46715;40.642;-7.920;2023-11-19T09:26:49;74491.22;;;-146.45;87.82
60874;BME280;46715;40.642;-7.920;2023-11-19T09:28:53;74473.31;;;-146.45;88.51
60874;BME280;46715;40.642;-7.920;2023-11-19T09:30:54;74459.41;;;-146.45;88.96
60874;BME280;46715;40.642;-7.920;2023-11-19T09:32:55;74453.44;;;-146.45;89.30
60874;BME280;46715;40.642;-7.920;2023-11-19T09:34:55;74443.50;;;-146.45;89.58
60874;BME280;46715;40.642;-7.920;2023-11-19T09:36:56;74435.53;;;-146.45;89.54
60874;BME280;46715;40.642;-7.920;2023-11-19T09:38:57;74425.59;;;-146.45;89.51
60874;BME280;46715;40.642;-7.920;2023-11-19T09:40:59;74415.66;;;-146.45;89.41
60874;BME280;46715;40.642;-7.920;2023-11-19T09:43:03;74395.78;;;-146.45;89.08
60874;BME280;46715;40.642;-7.920;2023-11-19T09:45:06;74389.81;;;-146.45;88.89
60874;BME280;46715;40.642;-7.920;2023-11-19T09:47:15;74385.81;;;-146.45;87.90
60874;BME280;46715;40.642;-7.920;2023-11-19T09:49:21;74363.97;;;-146.45;87.97
60874;BME280;46715;40.642;-7.920;2023-11-19T09:51:24;74358.00;;;-146.45;87.17
60874;BME280;46715;40.642;-7.920;2023-11-19T09:53:25;74344.06;;;-146.45;87.42
60874;BME280;46715;40.642;-7.920;2023-11-19T09:55:25;74336.13;;;-146.45;86.09
60874;BME280;46715;40.642;-7.920;2023-11-19T09:57:27;74332.13;;;-146.45;85.37
60874;BME280;46715;40.642;-7.920;2023-11-19T09:59:31;74330.16;;;-146.45;84.06
60874;BME280;46715;40.642;-7.920;2023-11-19T10:01:33;74316.22;;;-146.45;84.12
60874;BME280;46715;40.642;-7.920;2023-11-19T10:03:34;74306.28;;;-146.45;84.14
60874;BME280;46715;40.642;-7.920;2023-11-19T10:05:38;74288.41;;;-146.45;83.40
60874;BME280;46715;40.642;-7.920;2023-11-19T10:07:39;74276.47;;;-146.45;83.31
60874;BME280;46715;40.642;-7.920;2023-11-19T10:09:40;74268.50;;;-146.45;83.04
60874;BME280;46715;40.642;-7.920;2023-11-19T10:11:40;74256.56;;;-146.45;82.48